Time;durP1;ratioP1;P1;durP2;ratioP2;P2;SDS_P1;SDS_P2;PMS_P1;PMS_P2;Temp;Humidity;BMP_temperature;BMP_pressure;BME280_temperature;BME280_humidity;BME280_pressure;Samples;Min_cycle;Max_cycle;Signal;HPM_P1;HPM_P2
2024/01/03 00:00:35;;;;;;;0.95;0.25;;;10.30;99.90;;;;;;4975961;28;20483;-78
2024/01/03 00:03:01;;;;;;;0.98;0.30;;;10.20;99.90;;;;;;4959333;28;20042;-76
2024/01/03 00:05:36;;;;;;;0.80;0.30;;;10.10;99.90;;;;;;4974939;28;20109;-77
2024/01/03 00:08:09;;;;;;;0.63;0.38;;;10.10;99.90;;;;;;4959122;28;20026;-76
2024/01/03 00:10:49;;;;;;;0.40;0.30;;;10.10;99.90;;;;;;4976241;28;20371;-76
2024/01/03 00:13:33;;;;;;;0.93;0.30;;;10.00;99.90;;;;;;4959039;28;20037;-95
2024/01/03 00:16:03;;;;;;;2.00;0.35;;;9.90;99.90;;;;;;4959155;28;20105;-76
2024/01/03 00:18:46;;;;;;;0.55;0.25;;;9.90;99.90;;;;;;4958671;28;20031;-77
2024/01/03 00:21:17;;;;;;;0.63;0.40;;;9.90;99.90;;;;;;4975171;28;20070;-76
2024/01/03 00:23:55;;;;;;;0.35;0.30;;;9.90;99.90;;;;;;4958887;28;20034;-77
2024/01/03 00:26:25;;;;;;;1.30;0.40;;;9.80;99.90;;;;;;4958606;28;20026;-77
2024/01/03 00:28:51;;;;;;;0.55;0.35;;;9.80;99.90;;;;;;4976145;28;20054;-76
2024/01/03 00:31:35;;;;;;;1.23;0.28;;;9.80;99.90;;;;;;4975839;28;20041;-94
2024/01/03 00:34:02;;;;;;;1.05;0.40;;;9.80;99.90;;;;;;4958818;28;20037;-77
2024/01/03 00:36:28;;;;;;;2.00;0.43;;;9.70;99.90;;;;;;4974274;28;20037;-77
2024/01/03 00:38:55;;;;;;;1.60;0.80;;;9.80;99.90;;;;;;4975987;28;20144;-73
2024/01/03 00:41:20;;;;;;;1.45;0.60;;;9.70;99.90;;;;;;4974025;28;20035;-74
2024/01/03 00:43:46;;;;;;;0.75;0.47;;;9.70;99.90;;;;;;4958351;28;20431;-74
2024/01/03 00:46:12;;;;;;;1.13;0.45;;;9.70;99.90;;;;;;4958452;28;20081;-74
2024/01/03 00:48:40;;;;;;;1.13;0.60;;;9.70;99.90;;;;;;4975251;28;20037;-74
2024/01/03 00:51:06;;;;;;;0.82;0.40;;;9.80;99.90;;;;;;4975708;28;20034;-74
2024/01/03 00:53:32;;;;;;;2.22;0.52;;;9.80;99.90;;;;;;4957853;28;20029;-74
2024/01/03 00:55:58;;;;;;;2.00;0.60;;;9.90;99.90;;;;;;4974454;28;20033;-76
2024/01/03 00:58:24;;;;;;;2.42;0.60;;;10.00;99.90;;;;;;4973780;28;20536;-77
2024/01/03 01:00:49;;;;;;;1.38;0.40;;;10.10;99.90;;;;;;4958019;28;20137;-77
2024/01/03 01:03:16;;;;;;;2.33;0.80;;;10.10;99.90;;;;;;4975598;28;20065;-77
2024/01/03 01:05:43;;;;;;;1.15;0.50;;;10.20;99.90;;;;;;4957711;28;20037;-77
2024/01/03 01:08:08;;;;;;;2.70;0.52;;;10.20;99.90;;;;;;4958152;28;20077;-77
2024/01/03 01:10:34;;;;;;;3.22;0.60;;;10.30;99.90;;;;;;4956651;28;20118;-76
2024/01/03 01:12:59;;;;;;;4.68;0.73;;;10.30;99.90;;;;;;4975464;28;20031;-77
2024/01/03 01:15:25;;;;;;;2.65;0.50;;;10.30;99.90;;;;;;4973822;28;20384;-77
2024/01/03 01:17:50;;;;;;;0.57;0.40;;;10.40;99.90;;;;;;4958252;28;20106;-77
2024/01/03 01:20:16;;;;;;;4.18;0.60;;;10.40;99.90;;;;;;4975230;28;20034;-77
2024/01/03 01:22:41;;;;;;;3.33;0.73;;;10.40;99.90;;;;;;4974567;28;20035;-76
2024/01/03 01:25:07;;;;;;;2.47;0.60;;;10.40;99.90;;;;;;4975711;28;20058;-76
2024/01/03 01:27:33;;;;;;;3.53;0.63;;;10.40;99.90;;;;;;4974869;28;20546;-77
2024/01/03 01:29:58;;;;;;;2.45;0.50;;;10.40;99.90;;;;;;4958312;28;20038;-77
2024/01/03 01:32:24;;;;;;;4.38;0.45;;;10.50;99.90;;;;;;4957474;28;20482;-77
2024/01/03 01:34:49;;;;;;;3.05;0.50;;;10.40;99.90;;;;;;4973856;28;20031;-77
2024/01/03 01:37:15;;;;;;;3.25;0.50;;;10.50;99.90;;;;;;4957466;28;20134;-76
2024/01/03 01:39:40;;;;;;;1.52;0.45;;;10.40;99.90;;;;;;4957099;28;20057;-77
2024/01/03 01:42:06;;;;;;;5.50;0.70;;;10.40;99.90;;;;;;4957453;28;20041;-76
2024/01/03 01:44:32;;;;;;;2.30;1.02;;;10.50;99.90;;;;;;4973075;28;20451;-77
2024/01/03 01:46:58;;;;;;;1.08;0.50;;;10.50;99.90;;;;;;4974829;28;20031;-76
2024/01/03 01:49:26;;;;;;;1.02;0.32;;;10.50;99.90;;;;;;4973999;28;20495;-77
2024/01/03 01:51:52;;;;;;;2.80;0.60;;;10.50;99.90;;;;;;4974376;28;20070;-76
2024/01/03 01:54:18;;;;;;;3.50;0.43;;;10.60;99.90;;;;;;4974274;28;20037;-77
2024/01/03 01:56:44;;;;;;;8.43;0.70;;;10.60;99.90;;;;;;4957030;28;20169;-77
2024/01/03 01:59:11;;;;;;;2.88;0.90;;;10.60;99.90;;;;;;4974892;28;20117;-77
2024/01/03 02:01:37;;;;;;;1.20;0.60;;;10.50;99.90;;;;;;4956784;28;20047;-77
2024/01/03 02:04:07;;;;;;;1.60;0.50;;;10.50;99.90;;;;;;4956946;28;20031;-77
2024/01/03 02:06:34;;;;;;;2.85;0.50;;;10.50;99.90;;;;;;4956885;28;20054;-77
2024/01/03 02:08:59;;;;;;;2.83;0.60;;;10.40;99.90;;;;;;4974487;28;20051;-77
2024/01/03 02:11:25;;;;;;;0.73;0.50;;;10.40;99.90;;;;;;4956653;28;20503;-77
2024/01/03 02:13:51;;;;;;;2.22;0.45;;;10.40;99.90;;;;;;4957436;28;20037;-76
2024/01/03 02:16:17;;;;;;;1.45;0.50;;;10.40;99.90;;;;;;4974050;28;20447;-77
2024/01/03 02:18:43;;;;;;;0.63;0.30;;;10.30;99.90;;;;;;4956662;28;20286;-77
2024/01/03 02:21:16;;;;;;;0.75;0.50;;;10.40;99.90;;;;;;4956499;28;20478;-77
2024/01/03 02:23:42;;;;;;;0.60;0.50;;;10.30;99.90;;;;;;4973874;28;20022;-77
2024/01/03 02:26:08;;;;;;;0.82;0.45;;;10.40;99.90;;;;;;4974104;28;20026;-75
2024/01/03 02:28:35;;;;;;;1.58;0.60;;;10.40;99.90;;;;;;4973556;28;20460;-77
2024/01/03 02:31:00;;;;;;;0.50;0.40;;;10.40;99.90;;;;;;4974407;28;20074;-77
2024/01/03 02:33:26;;;;;;;1.75;0.30;;;10.40;99.90;;;;;;4973520;28;20077;-77
2024/01/03 02:35:52;;;;;;;1.08;0.40;;;10.30;99.90;;;;;;4972835;28;20022;-77
2024/01/03 02:38:18;;;;;;;0.90;0.38;;;10.40;99.90;;;;;;4956404;28;20100;-76
2024/01/03 02:40:44;;;;;;;1.33;0.35;;;10.30;99.90;;;;;;4956311;28;20415;-76
2024/01/03 02:43:10;;;;;;;0.80;0.30;;;10.30;99.90;;;;;;4972702;28;20468;-76
2024/01/03 02:45:36;;;;;;;1.27;0.45;;;10.30;99.90;;;;;;4973770;28;20031;-77
2024/01/03 02:48:02;;;;;;;0.85;0.35;;;10.20;99.90;;;;;;4956683;28;20031;-76
2024/01/03 02:50:28;;;;;;;1.77;0.43;;;10.20;99.90;;;;;;4956237;28;20114;-77
2024/01/03 02:52:54;;;;;;;0.35;0.20;;;10.20;99.90;;;;;;4956531;28;20528;-77
2024/01/03 02:55:21;;;;;;;2.20;0.50;;;10.20;99.90;;;;;;4973899;28;20027;-76
2024/01/03 02:57:46;;;;;;;1.48;0.30;;;10.20;99.90;;;;;;4956069;28;20031;-76
2024/01/03 03:00:12;;;;;;;2.85;0.30;;;10.20;99.90;;;;;;4972683;28;20379;-76
2024/01/03 03:02:38;;;;;;;1.92;0.50;;;10.20;99.90;;;;;;4955842;28;20106;-77
2024/01/03 03:05:04;;;;;;;1.90;0.40;;;10.20;99.90;;;;;;4956415;28;20110;-76
2024/01/03 03:07:30;;;;;;;3.40;0.50;;;10.20;99.90;;;;;;4956265;28;20081;-77
2024/01/03 03:09:55;;;;;;;1.95;0.55;;;10.20;99.90;;;;;;4956451;28;20030;-77
2024/01/03 03:12:21;;;;;;;0.98;0.30;;;10.20;99.90;;;;;;4974174;28;20035;-76
2024/01/03 03:14:46;;;;;;;2.72;0.50;;;10.30;99.90;;;;;;4955785;28;20034;-77
2024/01/03 03:17:12;;;;;;;2.53;0.40;;;10.30;99.90;;;;;;4972736;28;20026;-77
2024/01/03 03:19:38;;;;;;;2.22;0.40;;;10.30;99.90;;;;;;4973151;28;20495;-77
2024/01/03 03:22:03;;;;;;;1.30;0.43;;;10.30;99.90;;;;;;4956379;28;20026;-76
2024/01/03 03:24:29;;;;;;;1.42;0.50;;;10.30;99.90;;;;;;4972205;28;20026;-77
2024/01/03 03:26:55;;;;;;;1.33;0.55;;;10.30;99.90;;;;;;4973572;28;20031;-76
2024/01/03 03:29:20;;;;;;;1.38;0.32;;;10.30;99.90;;;;;;4973332;28;20030;-76
2024/01/03 03:31:46;;;;;;;1.63;0.45;;;10.30;99.90;;;;;;4971814;28;20031;-76
2024/01/03 03:34:12;;;;;;;3.30;0.60;;;10.30;99.90;;;;;;4976310;28;20030;-76
2024/01/03 03:36:37;;;;;;;0.88;0.40;;;10.30;99.90;;;;;;4975276;28;20072;-77
2024/01/03 03:39:06;;;;;;;1.23;0.60;;;10.30;99.90;;;;;;4959727;28;20027;-76
2024/01/03 03:41:32;;;;;;;2.20;0.60;;;10.30;99.90;;;;;;4976169;28;20380;-77
2024/01/03 03:43:58;;;;;;;1.17;0.40;;;10.30;99.90;;;;;;4975864;28;20030;-76
2024/01/03 03:46:23;;;;;;;1.73;0.60;;;10.30;99.90;;;;;;4959745;28;20038;-76
2024/01/03 03:48:49;;;;;;;1.00;0.45;;;10.30;99.90;;;;;;4958845;28;20027;-76
2024/01/03 03:51:15;;;;;;;1.90;0.85;;;10.30;99.90;;;;;;4976918;28;20109;-77
2024/01/03 03:53:40;;;;;;;0.88;0.40;;;10.30;99.90;;;;;;4976503;28;20026;-76
2024/01/03 03:56:06;;;;;;;1.30;0.50;;;10.30;99.90;;;;;;4959499;28;20114;-76
2024/01/03 03:58:31;;;;;;;1.52;0.70;;;10.30;99.90;;;;;;4974998;28;20042;-77
2024/01/03 04:00:57;;;;;;;2.55;0.50;;;10.20;99.90;;;;;;4959347;28;20034;-76
2024/01/03 04:03:23;;;;;;;2.13;0.57;;;10.20;99.90;;;;;;4975360;28;20109;-77
2024/01/03 04:05:48;;;;;;;3.47;0.50;;;10.20;99.90;;;;;;4974968;28;20216;-77
2024/01/03 04:08:14;;;;;;;5.10;1.00;;;10.20;99.90;;;;;;4976537;28;20035;-76
2024/01/03 04:10:40;;;;;;;1.42;0.50;;;10.30;99.90;;;;;;4958841;28;20034;-77
2024/01/03 04:13:06;;;;;;;1.20;0.40;;;10.40;99.90;;;;;;4976560;28;20031;-76
2024/01/03 04:15:32;;;;;;;1.73;0.50;;;10.40;99.90;;;;;;4974849;28;20468;-77
2024/01/03 04:17:57;;;;;;;5.38;0.60;;;10.40;99.90;;;;;;4958978;28;20058;-76
2024/01/03 04:20:23;;;;;;;1.98;0.47;;;10.40;99.90;;;;;;4976054;28;20054;-76
2024/01/03 04:22:48;;;;;;;2.20;0.55;;;10.40;99.90;;;;;;4958192;28;20468;-76
2024/01/03 04:25:14;;;;;;;2.92;0.50;;;10.40;99.90;;;;;;4976202;28;20416;-76
2024/01/03 04:27:40;;;;;;;1.20;0.50;;;10.40;99.90;;;;;;4975736;28;20054;-77
2024/01/03 04:30:06;;;;;;;2.78;1.05;;;10.40;99.90;;;;;;4976113;28;20081;-74
2024/01/03 04:32:32;;;;;;;4.97;0.70;;;10.40;99.90;;;;;;4958024;28;20058;-76
2024/01/03 04:34:57;;;;;;;3.85;0.80;;;10.50;99.90;;;;;;4958626;28;20055;-74
2024/01/03 04:37:23;;;;;;;2.55;0.60;;;10.50;99.90;;;;;;4975872;28;20515;-74
2024/01/03 04:39:48;;;;;;;3.17;0.50;;;10.60;99.90;;;;;;4974270;28;20031;-74
2024/01/03 04:42:14;;;;;;;3.33;0.77;;;10.60;99.90;;;;;;4975905;28;20039;-74
2024/01/03 04:44:40;;;;;;;4.05;0.70;;;10.60;99.90;;;;;;4957879;28;20027;-74
2024/01/03 04:47:06;;;;;;;3.28;0.50;;;10.60;99.90;;;;;;4974583;28;20039;-74
2024/01/03 04:49:32;;;;;;;6.43;0.73;;;10.70;99.90;;;;;;4974324;28;20503;-88
2024/01/03 04:51:57;;;;;;;2.70;0.75;;;10.70;99.90;;;;;;4975759;28;20503;-74
2024/01/03 04:54:23;;;;;;;4.28;0.70;;;10.80;99.90;;;;;;4975680;28;20099;-74
2024/01/03 04:56:49;;;;;;;4.40;0.82;;;10.80;99.90;;;;;;4974996;28;20034;-74
2024/01/03 04:59:14;;;;;;;4.25;1.05;;;10.80;99.90;;;;;;4957918;28;20483;-74
2024/01/03 05:01:42;;;;;;;6.55;0.82;;;10.90;99.90;;;;;;4957735;28;20045;-74
2024/01/03 05:04:07;;;;;;;4.63;0.75;;;10.90;99.90;;;;;;4975490;28;20029;-74
2024/01/03 05:06:34;;;;;;;4.60;0.70;;;10.90;99.90;;;;;;4974169;28;20034;-91
2024/01/03 05:08:59;;;;;;;4.85;0.75;;;10.90;99.90;;;;;;4958258;28;20118;-74
2024/01/03 05:11:25;;;;;;;4.63;0.70;;;10.90;99.90;;;;;;4957807;28;20054;-74
2024/01/03 05:13:50;;;;;;;2.30;0.57;;;10.90;99.90;;;;;;4957498;28;20019;-74
2024/01/03 05:16:16;;;;;;;2.83;0.75;;;10.90;99.90;;;;;;4974915;28;20077;-74
2024/01/03 05:18:42;;;;;;;4.15;0.70;;;10.90;99.90;;;;;;4974716;28;20070;-77
2024/01/03 05:21:07;;;;;;;7.28;1.10;;;10.90;99.90;;;;;;4957760;28;20379;-75
2024/01/03 05:23:33;;;;;;;7.35;0.77;;;10.90;99.90;;;;;;4957745;28;20460;-74
2024/01/03 05:25:58;;;;;;;5.82;1.00;;;11.00;99.90;;;;;;4957357;28;20027;-74
2024/01/03 05:28:24;;;;;;;6.07;1.00;;;11.00;99.90;;;;;;4974727;28;20061;-74
2024/01/03 05:30:49;;;;;;;3.78;0.60;;;11.00;99.90;;;;;;4957277;28;20041;-74
2024/01/03 05:33:15;;;;;;;4.00;0.70;;;11.00;99.90;;;;;;4957742;28;20528;-74
2024/01/03 05:35:41;;;;;;;5.60;0.77;;;11.00;99.90;;;;;;4957147;28;20118;-75
2024/01/03 05:38:07;;;;;;;2.30;0.80;;;11.00;99.90;;;;;;4973427;28;20510;-74
2024/01/03 05:40:32;;;;;;;7.63;1.25;;;11.00;99.90;;;;;;4973754;28;20026;-74
2024/01/03 05:42:58;;;;;;;4.03;0.80;;;11.00;99.90;;;;;;4957065;28;20460;-75
2024/01/03 05:45:23;;;;;;;8.70;0.90;;;11.00;99.90;;;;;;4957065;28;20065;-74
2024/01/03 05:47:49;;;;;;;2.78;0.57;;;11.00;99.90;;;;;;4956934;28;20023;-75
2024/01/03 05:50:15;;;;;;;4.30;0.65;;;11.10;99.90;;;;;;4957306;28;20384;-75
2024/01/03 05:52:40;;;;;;;2.78;0.75;;;11.10;99.90;;;;;;4974082;28;20026;-75
2024/01/03 05:55:06;;;;;;;9.30;1.23;;;11.10;99.90;;;;;;4974208;28;20101;-75
2024/01/03 05:57:33;;;;;;;6.22;0.73;;;11.10;99.90;;;;;;4972842;28;20035;-75
2024/01/03 05:59:58;;;;;;;4.32;0.73;;;11.10;99.90;;;;;;4974035;28;20039;-75
2024/01/03 06:02:24;;;;;;;4.93;0.75;;;11.00;99.90;;;;;;4974307;28;20117;-75
2024/01/03 06:04:49;;;;;;;5.65;1.30;;;11.00;99.90;;;;;;4974151;28;20031;-74
2024/01/03 06:07:15;;;;;;;3.92;0.70;;;10.90;99.90;;;;;;4973051;28;20484;-74
2024/01/03 06:09:41;;;;;;;2.90;0.57;;;11.00;99.90;;;;;;4973905;28;20042;-75
2024/01/03 06:12:07;;;;;;;3.55;0.73;;;11.00;99.90;;;;;;4974400;28;20069;-74
2024/01/03 06:14:32;;;;;;;5.28;0.75;;;11.00;99.90;;;;;;4973951;28;20027;-74
2024/01/03 06:16:58;;;;;;;6.80;0.88;;;11.00;99.90;;;;;;4972523;28;20034;-74
2024/01/03 06:19:23;;;;;;;3.88;0.68;;;11.00;99.90;;;;;;4974143;28;20062;-75
2024/01/03 06:21:49;;;;;;;6.47;0.65;;;10.90;99.90;;;;;;4956233;28;20031;-75
2024/01/03 06:24:14;;;;;;;4.38;0.50;;;10.90;99.90;;;;;;4974071;28;20029;-75
2024/01/03 06:26:40;;;;;;;1.25;0.38;;;10.90;99.90;;;;;;4956278;28;20030;-75
2024/01/03 06:29:06;;;;;;;4.50;0.80;;;10.90;99.90;;;;;;4956633;28;20035;-75
2024/01/03 06:31:31;;;;;;;7.45;0.70;;;10.90;99.90;;;;;;4974035;28;20035;-75
2024/01/03 06:33:57;;;;;;;5.65;0.73;;;10.90;99.90;;;;;;4956233;28;20066;-75
2024/01/03 06:36:22;;;;;;;3.90;0.95;;;10.90;99.90;;;;;;4972573;28;20125;-76
2024/01/03 06:38:50;;;;;;;5.80;1.13;;;10.90;99.90;;;;;;4956350;28;20030;-75
2024/01/03 06:41:15;;;;;;;4.78;0.75;;;10.90;99.90;;;;;;4972445;28;20116;-74
2024/01/03 06:43:41;;;;;;;1.85;0.43;;;10.80;99.90;;;;;;4956049;28;20031;-76
2024/01/03 06:46:07;;;;;;;2.10;0.68;;;10.90;99.90;;;;;;4972828;28;20163;-75
2024/01/03 06:48:32;;;;;;;2.13;0.57;;;10.90;99.90;;;;;;4956676;28;20443;-75
2024/01/03 06:51:02;;;;;;;2.75;0.63;;;10.90;99.90;;;;;;4973751;28;20045;-76
2024/01/03 06:53:28;;;;;;;1.80;0.45;;;10.90;99.90;;;;;;4972724;28;20039;-75
2024/01/03 06:55:53;;;;;;;2.40;0.40;;;10.90;99.90;;;;;;4956232;28;20037;-75
2024/01/03 06:58:19;;;;;;;7.32;0.60;;;10.90;99.90;;;;;;4956745;28;20031;-75
2024/01/03 07:00:45;;;;;;;1.70;0.50;;;11.00;99.90;;;;;;4956011;28;20077;-76
2024/01/03 07:03:11;;;;;;;5.88;0.65;;;11.00;99.90;;;;;;4973802;28;20022;-75
2024/01/03 07:05:36;;;;;;;3.90;0.60;;;11.00;99.90;;;;;;4972631;28;20023;-75
2024/01/03 07:08:02;;;;;;;2.90;0.60;;;11.00;99.90;;;;;;4957188;28;20457;-75
2024/01/03 07:10:31;;;;;;;1.90;0.55;;;11.00;99.90;;;;;;4977497;28;20147;-75
2024/01/03 07:12:58;;;;;;;6.20;0.73;;;11.00;99.90;;;;;;4959779;28;20054;-75
2024/01/03 07:15:28;;;;;;;3.28;0.50;;;11.00;99.90;;;;;;4960134;28;20080;-75
2024/01/03 07:17:57;;;;;;;3.60;0.85;;;10.90;99.90;;;;;;4959725;28;20484;-75
2024/01/03 07:20:23;;;;;;;6.45;0.60;;;10.90;99.90;;;;;;4977458;28;20019;-76
2024/01/03 07:22:49;;;;;;;4.35;0.60;;;10.90;99.90;;;;;;4959530;28;20406;-75
2024/01/03 07:25:15;;;;;;;3.05;0.60;;;10.90;99.90;;;;;;4977368;28;20034;-75
2024/01/03 07:27:41;;;;;;;4.50;0.50;;;10.90;99.90;;;;;;4977055;28;20489;-90
2024/01/03 07:30:08;;;;;;;3.13;0.60;;;10.80;99.90;;;;;;4959859;28;20066;-75
2024/01/03 07:32:33;;;;;;;9.10;1.20;;;10.90;99.90;;;;;;4977161;28;20125;-75
2024/01/03 07:34:59;;;;;;;2.30;0.45;;;10.80;99.90;;;;;;4959392;28;20079;-75
2024/01/03 07:37:25;;;;;;;1.75;0.47;;;10.80;99.90;;;;;;4959420;28;20054;-75
2024/01/03 07:39:50;;;;;;;3.85;0.70;;;10.80;99.90;;;;;;4959766;28;20062;-74
2024/01/03 07:42:16;;;;;;;3.42;0.38;;;10.80;99.90;;;;;;4959937;28;20047;-74
2024/01/03 07:44:42;;;;;;;3.45;0.70;;;10.80;99.90;;;;;;4976985;28;20142;-89
2024/01/03 07:47:09;;;;;;;1.77;0.95;;;10.80;99.90;;;;;;4959903;28;20481;-75
2024/01/03 07:49:36;;;;;;;2.10;0.80;;;10.90;99.90;;;;;;4959834;28;20038;-75
2024/01/03 07:52:02;;;;;;;2.17;0.70;;;10.90;99.90;;;;;;4958903;28;20027;-75
2024/01/03 07:54:27;;;;;;;2.25;0.52;;;10.90;99.90;;;;;;4959782;28;20027;-75
2024/01/03 07:56:53;;;;;;;5.28;0.73;;;10.90;99.90;;;;;;4958996;28;20082;-75
2024/01/03 07:59:19;;;;;;;3.53;0.35;;;10.90;99.90;;;;;;4977663;28;20039;-76
2024/01/03 08:01:44;;;;;;;2.10;0.60;;;10.90;99.90;;;;;;4959136;28;20046;-77
2024/01/03 08:04:10;;;;;;;4.30;0.80;;;10.90;99.90;;;;;;4976559;28;20396;-76
2024/01/03 08:06:35;;;;;;;2.78;0.70;;;10.90;99.90;;;;;;4976797;28;20460;-76
2024/01/03 08:09:01;;;;;;;4.03;0.70;;;11.00;99.90;;;;;;4976447;28;20057;-76
2024/01/03 08:11:27;;;;;;;3.55;0.70;;;11.00;99.90;;;;;;4976692;28;20468;-77
2024/01/03 08:13:52;;;;;;;5.85;0.50;;;11.00;99.90;;;;;;4958887;28;20039;-76
2024/01/03 08:16:18;;;;;;;1.98;0.50;;;11.00;99.90;;;;;;4958816;28;20110;-76
2024/01/03 08:18:44;;;;;;;2.65;0.45;;;11.00;99.90;;;;;;4958589;28;20038;-75
2024/01/03 08:21:10;;;;;;;1.13;0.40;;;11.00;99.90;;;;;;4958933;28;20560;-76
2024/01/03 08:23:36;;;;;;;1.77;0.60;;;11.00;99.90;;;;;;4958763;28;20113;-76
2024/01/03 08:26:12;;;;;;;2.22;0.32;;;11.00;99.90;;;;;;4958509;28;20127;-76
2024/01/03 08:28:40;;;;;;;4.70;1.05;;;10.90;99.90;;;;;;4976286;28;20065;-75
2024/01/03 08:31:13;;;;;;;2.53;0.70;;;10.90;99.90;;;;;;4975720;28;20049;-76
2024/01/03 08:33:39;;;;;;;2.47;0.50;;;10.80;99.90;;;;;;4976552;28;20031;-75
2024/01/03 08:36:08;;;;;;;2.50;0.45;;;10.80;99.90;;;;;;4974523;28;20179;-76
2024/01/03 08:38:34;;;;;;;3.40;0.60;;;10.80;99.90;;;;;;4958681;28;20067;-76
2024/01/03 08:41:00;;;;;;;3.60;0.65;;;10.80;99.90;;;;;;4975474;28;20041;-76
2024/01/03 08:43:25;;;;;;;1.70;0.50;;;10.80;99.90;;;;;;4959008;28;20031;-76
2024/01/03 08:45:51;;;;;;;4.57;0.80;;;10.80;99.90;;;;;;4958409;28;20031;-76
2024/01/03 08:48:17;;;;;;;3.45;1.05;;;10.90;99.90;;;;;;4958615;28;20110;-75
2024/01/03 08:50:43;;;;;;;2.47;0.75;;;10.90;99.90;;;;;;4974731;28;20027;-76
2024/01/03 08:53:08;;;;;;;4.88;0.88;;;10.90;99.90;;;;;;4957987;28;20375;-76
2024/01/03 08:55:34;;;;;;;1.88;0.57;;;11.00;99.90;;;;;;4958519;28;20118;-76
2024/01/03 08:58:00;;;;;;;2.35;0.70;;;11.10;99.90;;;;;;4957941;28;20122;-76
2024/01/03 09:00:25;;;;;;;3.97;0.70;;;11.10;99.90;;;;;;4975826;28;20089;-76
2024/01/03 09:02:51;;;;;;;4.78;0.77;;;11.10;99.90;;;;;;4957910;28;20388;-76
2024/01/03 09:05:18;;;;;;;2.72;0.73;;;11.10;99.90;;;;;;4975785;28;20042;-76
2024/01/03 09:07:45;;;;;;;1.90;0.55;;;11.10;99.90;;;;;;4958426;28;20049;-76
2024/01/03 09:10:10;;;;;;;3.78;0.43;;;11.10;99.90;;;;;;4957801;28;20031;-76
2024/01/03 09:12:36;;;;;;;2.50;0.65;;;11.20;99.90;;;;;;4958379;28;20043;-76
2024/01/03 09:15:01;;;;;;;3.35;0.68;;;11.20;99.90;;;;;;4975298;28;20520;-76
2024/01/03 09:17:27;;;;;;;4.50;0.63;;;11.20;99.90;;;;;;4975171;28;20038;-76
2024/01/03 09:19:52;;;;;;;2.42;0.43;;;11.20;99.90;;;;;;4957616;28;20038;-76
2024/01/03 09:22:19;;;;;;;2.33;0.65;;;11.20;99.90;;;;;;4958129;28;20074;-76
2024/01/03 09:24:45;;;;;;;3.60;0.80;;;11.20;99.90;;;;;;4958153;28;20023;-76
2024/01/03 09:27:11;;;;;;;3.58;0.50;;;11.20;99.90;;;;;;4957479;28;20027;-76
2024/01/03 09:29:36;;;;;;;4.10;0.57;;;11.30;99.90;;;;;;4974748;28;20443;-76
2024/01/03 09:32:02;;;;;;;3.45;0.40;;;11.20;99.90;;;;;;4974140;28;20039;-76
2024/01/03 09:34:28;;;;;;;3.05;0.75;;;11.30;99.90;;;;;;4957725;28;20518;-76
2024/01/03 09:36:54;;;;;;;1.20;0.30;;;11.30;99.90;;;;;;4957073;28;20089;-76
2024/01/03 09:39:19;;;;;;;3.38;0.50;;;11.30;99.90;;;;;;4957717;28;20471;-76
2024/01/03 09:41:46;;;;;;;4.03;0.63;;;11.30;99.90;;;;;;4974702;28;20106;-76
2024/01/03 09:44:12;;;;;;;1.60;0.50;;;11.20;99.90;;;;;;4957211;28;20049;-75
2024/01/03 09:46:38;;;;;;;1.60;0.40;;;11.20;99.90;;;;;;4974960;28;20031;-75
2024/01/03 09:49:04;;;;;;;5.65;0.60;;;11.30;99.90;;;;;;4973235;28;20034;-76
2024/01/03 09:51:31;;;;;;;0.77;0.40;;;11.40;99.90;;;;;;4957630;28;20066;-76
2024/01/03 09:53:57;;;;;;;1.33;0.47;;;11.40;99.90;;;;;;4974533;28;20069;-76
2024/01/03 09:56:23;;;;;;;1.63;0.65;;;11.30;99.90;;;;;;4973573;28;20027;-76
2024/01/03 09:58:49;;;;;;;1.63;0.50;;;11.20;99.90;;;;;;4957473;28;20053;-76
2024/01/03 10:01:14;;;;;;;2.28;0.50;;;11.10;99.90;;;;;;4974201;28;20053;-76
2024/01/03 10:03:40;;;;;;;2.28;0.40;;;11.00;99.90;;;;;;4974723;28;20084;-76
2024/01/03 10:06:07;;;;;;;3.28;0.60;;;10.90;99.90;;;;;;4974550;28;20038;-76
2024/01/03 10:08:34;;;;;;;2.88;0.50;;;10.90;99.90;;;;;;4973422;28;20030;-76
2024/01/03 10:11:00;;;;;;;3.20;0.60;;;10.90;99.90;;;;;;4974169;28;20022;-76
2024/01/03 10:13:28;;;;;;;2.20;0.35;;;10.80;99.90;;;;;;4957140;28;20037;-76
2024/01/03 10:15:54;;;;;;;1.17;0.50;;;10.80;99.90;;;;;;4974033;28;20022;-76
2024/01/03 10:18:22;;;;;;;4.57;0.73;;;10.80;99.90;;;;;;4974368;28;20085;-76
2024/01/03 10:20:47;;;;;;;2.70;0.52;;;10.80;99.90;;;;;;4974347;28;20065;-76
2024/01/03 10:23:15;;;;;;;3.33;0.52;;;10.80;99.90;;;;;;4956512;28;20058;-76
2024/01/03 10:25:42;;;;;;;3.50;0.50;;;10.90;99.90;;;;;;4957035;28;20027;-76
2024/01/03 10:28:18;;;;;;;1.50;0.40;;;11.00;99.90;;;;;;4956365;28;20042;-76
2024/01/03 10:30:51;;;;;;;1.52;0.30;;;10.90;99.90;;;;;;4974288;28;20034;-76
2024/01/03 10:33:16;;;;;;;1.05;0.30;;;10.90;99.90;;;;;;4973595;28;20027;-76
2024/01/03 10:35:45;;;;;;;2.80;0.40;;;10.80;99.90;;;;;;4972975;28;20042;-76
2024/01/03 10:38:13;;;;;;;1.70;0.40;;;10.90;99.90;;;;;;4972240;28;20141;-76
2024/01/03 10:40:43;;;;;;;1.27;0.50;;;10.90;99.90;;;;;;4974075;28;20074;-76
2024/01/03 10:43:09;;;;;;;1.80;0.50;;;11.00;99.90;;;;;;4972066;28;20052;-76
2024/01/03 10:45:35;;;;;;;1.85;0.40;;;10.90;99.90;;;;;;4956725;28;20026;-76
2024/01/03 10:48:01;;;;;;;2.28;0.50;;;10.90;99.90;;;;;;4973667;28;20423;-76
2024/01/03 10:50:28;;;;;;;1.83;0.85;;;10.90;99.90;;;;;;4974409;28;20114;-76
2024/01/03 10:52:58;;;;;;;0.82;0.50;;;10.80;99.90;;;;;;4973567;28;20040;-86
2024/01/03 10:55:30;;;;;;;1.08;0.40;;;10.80;99.90;;;;;;4974123;28;20376;-76
2024/01/03 10:57:58;;;;;;;1.67;0.35;;;10.90;99.90;;;;;;4956224;28;20034;-76
2024/01/03 11:00:30;;;;;;;3.13;0.60;;;11.00;99.90;;;;;;4972689;28;20506;-76
2024/01/03 11:03:34;;;;;;;1.52;0.73;;;11.00;99.90;;;;;;4956244;28;20035;-76
2024/01/03 11:06:10;;;;;;;4.18;0.50;;;11.00;99.90;;;;;;4914119;28;20069;-76
2024/01/03 11:09:01;;;;;;;1.55;0.63;;;11.00;99.90;;;;;;4956508;28;20031;-76
2024/01/03 11:11:34;;;;;;;3.85;0.55;;;11.20;99.90;;;;;;4973946;28;20468;-76
2024/01/03 11:14:01;;;;;;;5.05;0.50;;;11.20;99.90;;;;;;4956083;28;20518;-76
2024/01/03 11:16:40;;;;;;;1.85;0.40;;;11.30;99.90;;;;;;4956510;28;20491;-76
2024/01/03 11:19:08;;;;;;;3.25;0.60;;;11.40;99.90;;;;;;4955942;28;20038;-76
2024/01/03 11:21:35;;;;;;;3.10;0.50;;;11.40;99.90;;;;;;4972653;28;20038;-76
2024/01/03 11:24:18;;;;;;;2.42;0.60;;;11.30;99.90;;;;;;4956051;28;20038;-76
2024/01/03 11:26:53;;;;;;;2.55;0.52;;;11.40;99.90;;;;;;4956513;28;20086;-76
2024/01/03 11:29:48;;;;;;;1.90;0.50;;;11.40;99.90;;;;;;4973074;28;20102;-76
2024/01/03 11:32:31;;;;;;;1.40;0.50;;;11.50;99.90;;;;;;4955964;28;20138;-76
2024/01/03 11:34:58;;;;;;;2.92;0.60;;;11.60;99.90;;;;;;4955966;28;20026;-77
2024/01/03 11:37:24;;;;;;;2.60;0.80;;;11.60;99.90;;;;;;4955790;28;20055;-76
2024/01/03 11:39:52;;;;;;;3.25;0.60;;;11.60;99.90;;;;;;4956340;28;20385;-76
2024/01/03 11:42:55;;;;;;;2.45;0.50;;;11.60;99.90;;;;;;4973056;28;20058;-76
2024/01/03 11:45:22;;;;;;;5.07;0.43;;;11.60;99.90;;;;;;4917316;28;20384;-76
2024/01/03 11:47:52;;;;;;;3.63;0.60;;;11.70;99.90;;;;;;4956088;28;20030;-76
2024/01/03 11:50:18;;;;;;;3.50;0.55;;;11.70;99.90;;;;;;4955778;28;20385;-76
2024/01/03 11:52:49;;;;;;;3.33;0.73;;;11.70;99.90;;;;;;4973779;28;20038;-76
2024/01/03 11:55:17;;;;;;;5.05;0.98;;;11.70;99.90;;;;;;4958252;28;20023;-76
2024/01/03 11:57:44;;;;;;;2.42;0.70;;;11.80;99.90;;;;;;4976885;28;20030;-76
2024/01/03 12:00:11;;;;;;;5.10;0.80;;;11.90;99.90;;;;;;4958952;28;20484;-76
2024/01/03 12:02:37;;;;;;;1.63;0.63;;;12.00;99.90;;;;;;4959000;28;20041;-76
2024/01/03 12:05:05;;;;;;;2.78;0.90;;;12.00;99.90;;;;;;4958979;28;20031;-76
2024/01/03 12:07:36;;;;;;;8.38;0.75;;;12.00;99.90;;;;;;4976774;28;20030;-76
2024/01/03 12:10:03;;;;;;;3.20;0.60;;;12.00;99.90;;;;;;4976251;28;20027;-76
2024/01/03 12:12:29;;;;;;;5.28;0.60;;;12.00;99.90;;;;;;4959330;28;20034;-76
2024/01/03 12:14:55;;;;;;;2.97;0.50;;;12.00;99.90;;;;;;4976370;28;20495;-76
2024/01/03 12:17:32;;;;;;;3.80;0.50;;;12.00;99.90;;;;;;4975002;28;20026;-76
2024/01/03 12:20:13;;;;;;;2.75;0.73;;;11.90;99.90;;;;;;4975247;28;20107;-76
2024/01/03 12:22:38;;;;;;;3.80;0.50;;;11.90;99.90;;;;;;4976521;28;20113;-76
2024/01/03 12:25:04;;;;;;;3.85;0.40;;;11.80;99.90;;;;;;4976084;28;20113;-76
2024/01/03 12:27:32;;;;;;;1.25;0.40;;;11.80;99.90;;;;;;4959294;28;20503;-76
2024/01/03 12:30:18;;;;;;;2.17;0.40;;;11.70;99.90;;;;;;4959105;28;20054;-76
2024/01/03 12:32:46;;;;;;;4.05;0.45;;;11.70;99.90;;;;;;4976373;28;20034;-75
2024/01/03 12:35:12;;;;;;;1.25;0.30;;;11.70;99.90;;;;;;4975909;28;20034;-76
2024/01/03 12:37:49;;;;;;;2.40;0.40;;;11.70;99.90;;;;;;4976297;28;20043;-76
2024/01/03 12:40:16;;;;;;;1.65;0.38;;;11.80;99.90;;;;;;4975747;28;20054;-76
2024/01/03 12:42:43;;;;;;;0.85;0.30;;;11.90;99.90;;;;;;4958647;28;20507;-76
2024/01/03 12:45:09;;;;;;;4.45;0.45;;;12.00;99.90;;;;;;4975585;28;20031;-76
2024/01/03 12:47:35;;;;;;;1.40;0.50;;;12.00;99.90;;;;;;4976057;28;20058;-76